Aktualne dane pomiarowe

Uwaga, wersja testowa! Automatyczne pobieranie danych za pomocą narzędzi lub skryptów to umożliwiających jest zabronione.

Dane meteo z obszaru Polski uzyskane na podstawie depesz SYNOP pobieranych co godzinę z NWS. Najedź myszką na symbol przedstawiony w tabeli, aby uzyskać informacje co do jego znaczenia. Prosimy pamiętać, że to testowa wersja strony, która jeszcze nie jest ukończona. Stworzono również jest krótki FAQ dotyczący korzystania z tej podstrony Anomalie temperatury w chwili obecnej odniesione są do okresu referencyjnego 1951-2016. Okres ten będzie później zmieniony na 1981-2010. Kliknij ikonę aby pobrać plik CSV. Kliknij ikonę aby wygenerować mapę synoptyczną dla danego terminu.

Wybierz Datę:    

        

Elbląg-Milejewo (12160)

Dane terminowe dla wybranej stacji. Kliknij datę, aby otrzymać dane z tego terminu dla wszystkich stacji.

TemperaturaZachmurzenieWiatrCiśnienieOpadyPogoda
 Data t td wb tx tn tg rh  Nt Nl Cl Cm Ch ws wd g1 g2 wx mslp ppp ch 24h 12h t ww ww w1 w2  
2019-06-30 23:00:00 23.1 12.1 16.4--- 5020.0wx-wx1wx-1011007.6 986.3 -0.3---------
2019-06-30 22:00:00 23.2 11.9 16.3--- 4920.0wx-wx4wx--41007.3 986.1 -0.6---------
2019-06-30 21:00:00 23.8 12.1 16.7--- 4820.0wx-wx4wx--41007.6 986.4 -0.7---------
2019-06-30 20:00:00 24.7 12.0 17.0--- 4520.0wx-wx3wx---1007.8 986.6 -0.9---------
2019-06-30 19:00:00 26.4 14.2 18.7--- 4720.0wx-wxwx3wx--31007.7 986.7 -1.4---------
2019-06-30 18:00:00 29.2 14.6 20.0 31.3 18.9- 4120.0wx-wxwx3wx--31007.9 987.1 -1.7- 0.012------
2019-06-30 17:00:00 30.4 14.9 20.6--- 3920.0wx-wx2wx--21008.3 987.5 -2.2---------
2019-06-30 16:00:00 31.2 13.9 20.4--- 3520.0wx-wx4wx--41008.8 988.1 -2.0---------
2019-06-30 15:00:00 31.1 12.0 19.4--- 3120.0wx-wx4wx--41009.5 988.8 -2.3---------
2019-06-30 14:00:00 30.4 10.9 18.7--- 3020.0wx-6wx--61010.5 989.7 -2.1---------
2019-06-30 13:00:00 29.2 14.2 19.8--- 4020.0wx-5wx--51011.0 990.1 -2.4---------
2019-06-30 12:00:00 27.9 14.2 19.3--- 4320.0wx-5wx--51012.1 991.1 -1.7- 0.06------
2019-06-30 11:00:00 26.5 14.3 18.8--- 4720.0wx-4wx--41012.9 991.8 -1.0---------
2019-06-30 10:00:00 25.2 13.4 17.9--- 4820.0wx-4wx--41013.7 992.5 -0.5---------
2019-06-30 09:00:00 23.8 14.5 17.9--- 5620.0wx-4wx---1014.1 992.8 -0.1---------
2019-06-30 08:00:00 21.8 15.2 17.5--- 6620.0wx-4wx--41014.3 992.8 0.0---------
2019-06-30 07:00:00 19.8 14.2 16.1--- 7020.0wx-3wx--31014.6 993.0 0.1---------
2019-06-30 06:00:00 18.9 14.2 15.8 21.7 14.1 13 7420.0wx-3wx--31014.6 992.9 0.2- 0.012----- 13.3
2019-06-30 05:00:00 17.0 12.7 14.2--- 7620.0wx-3wx--31014.7 992.8 0.2---------
2019-06-30 04:00:00 15.1 11.1 12.5--- 7715.0wx-3wx---1014.9 992.9 0.2---------
2019-06-30 03:00:00 14.1 10.7 11.9--- 8015.0wx-3wx--31014.8 992.7 -0.3---------
2019-06-30 02:00:00 14.7 11.1 12.3--- 7915.0wx-wx4wx--41014.6 992.6 -0.4---------
2019-06-30 01:00:00 14.7 10.7 12.1--- 7715.0wx-wx4wx--41014.7 992.7 -0.6---------
2019-06-30 00:00:00 15.9 10.9 12.7--- 7220.0wx-2wx--21014.9 993.0 -0.8- 0.06------
2019-06-29 23:00:00 16.6 10.9 13.0--- 6920.0wx-4wx---1014.9 993.0 -1.1---------
2019-06-29 22:00:00 17.2 10.8 13.2--- 6620.0wx-wx4wx---1015.2 993.3 -0.9---------
2019-06-29 21:00:00 17.5 11.1 13.5--- 6620.0wx-4wx--41015.6 993.8 -0.3---------
2019-06-29 20:00:00 18.7 11.5 14.2--- 6320.0wx-wxwx2wx--21015.9 994.1 -0.5---------
2019-06-29 19:00:00 19.9 12.6 15.3--- 6320.0wx-wxwx1wx--11015.9 994.2 -0.4---------
2019-06-29 18:00:00 21.7 12.5 16.0 24.2 16.8- 5620.0wx-wxwx2wx--21015.6 994.1 -0.6- 0.012------
2019-06-29 17:00:00 22.9 11.6 16.0--- 4920.0wx-wxwx3wx---1016.1 994.6 -0.6---------
2019-06-29 16:00:00 23.7 11.7 16.4--- 4720.0wx-wx3wx---1016.0 994.6 -0.6---------
2019-06-29 15:00:00 23.9 11.9 16.6--- 4720.0wx-wx2wx--21016.1 994.7 -1.5---------
2019-06-29 14:00:00 23.9 12.2 16.7--- 4820.0wx-wx3wx---1016.6 995.2 -1.7---------
2019-06-29 13:00:00 23.4 11.8 16.3--- 4820.0wxwxwx4wx---1016.6 995.2 -1.9---------
2019-06-29 12:00:00 22.5 11.9 16.0--- 5120.0wxwxwxwxwx4wx-941017.7 996.2 -1.1- 0.06------
2019-06-29 11:00:00 22.1 12.6 16.2--- 5520.0wxwxwxwxwx3wx--31018.5 996.9 -0.7---------
2019-06-29 10:00:00 21.4 11.1 15.2--- 5220.0wxwxwxwxwx3wx--31018.7 997.1 -0.4---------
2019-06-29 09:00:00 20.3 11.5 14.9--- 5720.0wxwxwxwxwx4wx--41019.0 997.3 -0.2---------
2019-06-29 08:00:00 18.3 11.8 14.2--- 6620.0wxwxwxwxwx4wx--41019.5 997.6 0.1---------
2019-06-29 07:00:00 17.1 13.0 14.4--- 7720.0wxwxwxwxwx4wx--41019.5 997.5 0.0---------
2019-06-29 06:00:00 17.2 12.9 14.4 17.4 12.1 11 7620.0wxwxwxwxwx3wx--31019.4 997.5 0.0- 0.012----- 12.0
2019-06-29 05:00:00 15.8 12.5 13.6--- 8120.0wxwxwxwxwx2wx--21019.6 997.5 -0.2---------
2019-06-29 04:00:00 12.6 10.8 11.4--- 8920.0wxwxwxwxwx3wx--31019.8 997.5 -0.4---------
2019-06-29 03:00:00 12.3 10.0 10.7--- 8620.0wxwxwxwxwx3wx--31019.8 997.5 -0.7---------
2019-06-29 02:00:00 12.4 9.2 10.3--- 8120.0wxwxwxwxwx3wx--31020.0 997.7 -1.0---------
2019-06-29 01:00:00 12.5 9.7 10.6--- 8320.0wx-wxwx5wx--51020.2 997.9 -1.0---------
2019-06-29 00:00:00 12.5 10.4 11.1--- 8720.0wx-wxwx4wx--41020.5 998.2 -1.0- 0.06------
1.2 ms

 

Print Friendly, PDF & Email